createdAt,value
2022-12-18T00:00:49.177Z,71.55
2022-12-18T00:03:35.359Z,71.46
2022-12-18T00:06:19.612Z,72.05
2022-12-18T00:09:05.263Z,71.84
2022-12-18T00:11:49.310Z,71.26
2022-12-18T00:14:33.860Z,71.24
2022-12-18T00:17:17.947Z,72.76
2022-12-18T00:20:03.518Z,72.70
2022-12-18T00:22:47.682Z,73.74
2022-12-18T00:25:31.589Z,72.39
2022-12-18T00:28:15.626Z,72.84
2022-12-18T00:31:03.495Z,72.11
2022-12-18T00:33:47.626Z,71.96
2022-12-18T00:36:37.005Z,72.01
2022-12-18T00:39:20.994Z,72.49
2022-12-18T00:42:27.716Z,72.06
2022-12-18T00:45:13.206Z,73.03
2022-12-18T00:47:58.207Z,73.50
2022-12-18T00:50:42.294Z,74.37
2022-12-18T00:53:27.873Z,73.59
2022-12-18T00:56:14.662Z,73.36
2022-12-18T00:58:58.637Z,74.68
2022-12-18T01:01:42.773Z,74.88
2022-12-18T01:04:26.922Z,74.82
2022-12-18T01:07:10.920Z,75.53
2022-12-18T01:09:56.449Z,75.01
2022-12-18T01:12:40.852Z,76.31
2022-12-18T01:15:24.807Z,75.88
2022-12-18T01:18:09.505Z,75.11
2022-12-18T01:20:53.520Z,75.65
2022-12-18T01:23:38.046Z,74.87
2022-12-18T01:26:23.694Z,74.19
2022-12-18T01:29:08.156Z,74.32
2022-12-18T01:31:52.588Z,73.46
2022-12-18T01:34:37.718Z,73.18
2022-12-18T01:37:21.467Z,72.40
2022-12-18T01:40:07.678Z,72.18
2022-12-18T01:42:53.766Z,72.13
2022-12-18T01:45:37.776Z,72.34
2022-12-18T01:48:21.865Z,71.65
2022-12-18T01:51:06.593Z,71.71
2022-12-18T01:53:50.836Z,71.30
2022-12-18T01:56:34.749Z,70.79
2022-12-18T01:59:20.097Z,70.72
2022-12-18T02:02:05.358Z,70.54
2022-12-18T02:04:49.681Z,70.69
2022-12-18T02:07:44.896Z,69.29
2022-12-18T02:10:33.805Z,70.51
2022-12-18T02:13:23.199Z,69.96
2022-12-18T02:16:34.535Z,69.78
2022-12-18T02:19:39.940Z,69.06
2022-12-18T02:22:31.867Z,69.94
2022-12-18T02:25:25.114Z,69.80
2022-12-18T02:28:15.895Z,69.79
2022-12-18T02:31:03.941Z,69.17
2022-12-18T02:33:49.399Z,69.58
2022-12-18T02:36:34.735Z,69.91
2022-12-18T02:39:19.864Z,69.28
2022-12-18T02:42:14.713Z,70.27
2022-12-18T02:44:59.948Z,71.11
2022-12-18T02:47:51.803Z,70.07
2022-12-18T02:50:39.801Z,71.80
2022-12-18T02:53:33.934Z,69.45
2022-12-18T02:56:22.232Z,68.82
2022-12-18T02:59:11.856Z,68.66
2022-12-18T03:02:07.053Z,70.30
2022-12-18T03:05:00.899Z,68.21
2022-12-18T03:07:49.154Z,69.55
2022-12-18T03:10:37.907Z,69.99
2022-12-18T03:13:28.072Z,70.25
2022-12-18T03:16:16.560Z,69.74
2022-12-18T03:19:06.472Z,70.83
2022-12-18T03:21:55.710Z,70.84
2022-12-18T03:24:41.177Z,70.92
2022-12-18T03:27:26.973Z,70.39
2022-12-18T03:30:15.696Z,69.52
2022-12-18T03:33:08.191Z,70.85
2022-12-18T03:35:55.027Z,70.21
2022-12-18T03:38:40.261Z,69.86
2022-12-18T03:41:31.875Z,69.88
2022-12-18T03:44:47.188Z,70.47
2022-12-18T03:47:37.951Z,70.12
2022-12-18T03:50:29.982Z,70.24
2022-12-18T03:53:25.291Z,70.77
2022-12-18T03:56:11.965Z,69.87
2022-12-18T03:58:59.908Z,70.52
2022-12-18T04:01:49.737Z,71.14
2022-12-18T04:04:35.608Z,71.07
2022-12-18T04:07:22.320Z,71.61
2022-12-18T04:10:13.319Z,71.67
2022-12-18T04:13:00.158Z,72.58
2022-12-18T04:15:44.999Z,72.18
2022-12-18T04:18:32.488Z,72.43
2022-12-18T04:21:18.177Z,72.20
2022-12-18T04:24:03.853Z,72.89
2022-12-18T04:26:49.069Z,72.24
2022-12-18T04:29:35.831Z,71.60
2022-12-18T04:32:19.603Z,71.06
2022-12-18T04:35:07.715Z,70.09
2022-12-18T04:37:52.179Z,70.90
2022-12-18T04:40:36.093Z,70.17
2022-12-18T04:43:23.911Z,70.62
2022-12-18T04:46:09.597Z,70.05
2022-12-18T04:48:53.728Z,70.26
2022-12-18T04:51:37.457Z,69.96
2022-12-18T04:54:21.290Z,69.08
2022-12-18T04:57:05.035Z,69.65
2022-12-18T04:59:50.201Z,69.65
2022-12-18T05:02:34.157Z,70.83
2022-12-18T05:05:18.473Z,69.98
2022-12-18T05:08:02.236Z,71.23
2022-12-18T05:10:46.516Z,71.23
2022-12-18T05:13:30.698Z,72.25
2022-12-18T05:16:16.250Z,71.82
2022-12-18T05:19:00.020Z,70.91
2022-12-18T05:21:43.682Z,71.02
2022-12-18T05:24:28.054Z,72.12
2022-12-18T05:27:11.783Z,73.45
2022-12-18T05:29:55.540Z,73.75
2022-12-18T05:32:41.148Z,72.42
2022-12-18T05:35:24.935Z,72.63
2022-12-18T05:38:08.698Z,71.85
2022-12-18T05:40:53.109Z,72.25
2022-12-18T05:43:38.539Z,70.94
2022-12-18T05:46:22.546Z,72.22
2022-12-18T05:49:07.757Z,70.91
2022-12-18T05:51:51.593Z,71.00
2022-12-18T05:54:35.486Z,69.45
2022-12-18T05:57:19.400Z,68.82
2022-12-18T06:00:03.325Z,67.34
2022-12-18T06:02:56.105Z,67.84
2022-12-18T06:05:43.219Z,67.29
2022-12-18T06:08:27.018Z,67.51
2022-12-18T06:11:10.792Z,67.90
2022-12-18T06:13:58.695Z,69.08
2022-12-18T06:16:43.163Z,69.71
2022-12-18T06:19:26.961Z,69.40
2022-12-18T06:22:12.102Z,70.18
2022-12-18T06:24:56.029Z,71.30
2022-12-18T06:27:39.782Z,70.87
2022-12-18T06:30:23.691Z,70.77
2022-12-18T06:33:07.807Z,70.89
2022-12-18T06:35:52.787Z,70.93
2022-12-18T06:38:42.449Z,70.00
2022-12-18T06:41:26.573Z,69.70
2022-12-18T06:44:10.349Z,71.00
2022-12-18T06:46:54.957Z,71.14
2022-12-18T06:49:38.732Z,70.88
2022-12-18T06:52:22.533Z,70.82
2022-12-18T06:55:09.073Z,71.35
2022-12-18T06:57:52.944Z,71.93
2022-12-18T07:00:37.100Z,72.04
2022-12-18T07:03:21.059Z,71.17
2022-12-18T07:06:05.512Z,71.25
2022-12-18T07:08:50.221Z,70.87
2022-12-18T07:11:36.311Z,71.78
2022-12-18T07:14:20.263Z,71.23
2022-12-18T07:17:04.229Z,70.62
2022-12-18T07:19:48.026Z,70.03
2022-12-18T07:22:31.771Z,71.33
2022-12-18T07:25:15.468Z,71.10
2022-12-18T07:28:00.623Z,72.97
2022-12-18T07:30:44.395Z,72.91
2022-12-18T07:33:28.257Z,73.45
2022-12-18T07:36:13.386Z,73.76
2022-12-18T07:38:57.225Z,73.34
2022-12-18T07:41:46.752Z,71.66
2022-12-18T07:44:34.664Z,71.78
2022-12-18T07:47:18.476Z,73.78
2022-12-18T07:50:02.244Z,72.17
2022-12-18T07:52:46.713Z,71.70
2022-12-18T07:55:47.918Z,72.50
2022-12-18T07:58:35.001Z,72.01
2022-12-18T08:01:20.234Z,71.33
2022-12-18T08:04:05.375Z,71.85
2022-12-18T08:06:49.216Z,71.37
2022-12-18T08:09:33.043Z,70.62
2022-12-18T08:12:16.881Z,70.15
2022-12-18T08:15:00.679Z,70.58
2022-12-18T08:17:45.785Z,70.99
2022-12-18T08:20:29.549Z,70.54
2022-12-18T08:23:13.361Z,71.59
2022-12-18T08:25:57.157Z,71.68
2022-12-18T08:28:41.075Z,71.83
2022-12-18T08:31:25.727Z,71.66
2022-12-18T08:34:11.209Z,73.03
2022-12-18T08:36:55.001Z,72.74
2022-12-18T08:39:38.808Z,73.00
2022-12-18T08:42:40.142Z,72.98
2022-12-18T08:45:23.943Z,73.92
2022-12-18T08:48:08.087Z,73.46
2022-12-18T08:50:58.487Z,74.83
2022-12-18T08:53:42.528Z,73.93
2022-12-18T08:56:26.795Z,74.03
2022-12-18T08:59:15.909Z,73.89
2022-12-18T09:02:03.240Z,74.81
2022-12-18T09:04:55.378Z,75.41
2022-12-18T09:07:42.518Z,75.35
2022-12-18T09:10:26.271Z,75.03
2022-12-18T09:13:10.078Z,75.44
2022-12-18T09:15:56.312Z,75.06
2022-12-18T09:18:40.330Z,74.70
2022-12-18T09:21:24.478Z,76.09
2022-12-18T09:24:15.406Z,74.25
2022-12-18T09:26:59.867Z,73.03
2022-12-18T09:29:43.588Z,73.55
2022-12-18T09:32:27.414Z,72.94
2022-12-18T09:35:11.151Z,73.34
2022-12-18T09:37:55.479Z,73.47
2022-12-18T09:40:45.962Z,73.85
2022-12-18T09:43:35.886Z,74.25
2022-12-18T09:46:26.516Z,74.99
2022-12-18T09:49:16.849Z,74.86
2022-12-18T09:52:07.060Z,73.28
2022-12-18T09:54:55.683Z,73.96
2022-12-18T09:57:47.510Z,74.06
2022-12-18T10:00:31.502Z,73.56
2022-12-18T10:03:17.309Z,74.48
2022-12-18T10:06:08.717Z,74.96
2022-12-18T10:09:01.035Z,72.74
2022-12-18T10:11:55.209Z,72.59
2022-12-18T10:14:50.188Z,72.76
2022-12-18T10:17:44.496Z,72.90
2022-12-18T10:20:34.264Z,71.78
2022-12-18T10:23:27.529Z,72.96
2022-12-18T10:26:13.728Z,72.97
2022-12-18T10:29:05.579Z,72.86
2022-12-18T10:31:51.052Z,73.14
2022-12-18T10:34:35.009Z,73.91
2022-12-18T10:37:21.147Z,72.96
2022-12-18T10:40:18.443Z,74.02
2022-12-18T10:43:07.379Z,72.21
2022-12-18T10:46:19.517Z,72.97
2022-12-18T10:49:04.975Z,73.23
2022-12-18T10:51:49.026Z,72.27
2022-12-18T10:54:34.153Z,72.45
2022-12-18T10:57:31.594Z,70.90
2022-12-18T11:00:26.215Z,72.46
2022-12-18T11:03:32.652Z,73.33
2022-12-18T11:06:19.847Z,73.74
2022-12-18T11:09:13.131Z,73.30
2022-12-18T11:12:00.317Z,73.64
2022-12-18T11:14:48.043Z,73.83
2022-12-18T11:17:34.697Z,73.11
2022-12-18T11:20:33.934Z,72.95
2022-12-18T11:23:21.375Z,73.52
2022-12-18T11:26:07.056Z,72.74
2022-12-18T11:28:53.839Z,72.32
2022-12-18T11:31:37.702Z,72.82
2022-12-18T11:34:29.764Z,73.98
2022-12-18T11:37:20.182Z,73.37
2022-12-18T11:40:13.902Z,73.19
2022-12-18T11:43:06.645Z,75.17
2022-12-18T11:45:56.382Z,72.83
2022-12-18T11:48:47.020Z,73.03
2022-12-18T11:51:37.213Z,73.79
2022-12-18T11:54:20.964Z,74.22
2022-12-18T11:57:18.628Z,74.02
2022-12-18T12:00:07.356Z,74.36
2022-12-18T12:03:27.968Z,75.57
2022-12-18T12:06:19.476Z,76.16
2022-12-18T12:09:15.112Z,75.45
2022-12-18T12:12:14.640Z,74.17
2022-12-18T12:15:12.473Z,75.49
2022-12-18T12:18:08.172Z,75.40
2022-12-18T12:21:05.292Z,74.92
2022-12-18T12:23:55.441Z,76.03
2022-12-18T12:26:47.356Z,77.45
2022-12-18T12:29:44.770Z,76.24
2022-12-18T12:32:48.512Z,75.35
2022-12-18T12:35:44.922Z,75.56
2022-12-18T12:38:33.700Z,76.76
2022-12-18T12:41:39.349Z,77.25
2022-12-18T12:44:28.418Z,77.22
2022-12-18T12:47:18.828Z,77.27
2022-12-18T12:50:08.014Z,77.63
2022-12-18T12:52:55.518Z,76.31
2022-12-18T12:55:41.272Z,75.94
2022-12-18T12:58:33.639Z,76.27
2022-12-18T13:01:27.585Z,74.69
2022-12-18T13:04:24.089Z,74.85
2022-12-18T13:07:14.896Z,74.77
2022-12-18T13:10:26.817Z,74.05
2022-12-18T13:13:11.677Z,72.08
2022-12-18T13:16:07.437Z,67.67
2022-12-18T13:18:52.465Z,64.21
2022-12-18T13:21:37.714Z,64.04
2022-12-18T13:24:27.464Z,64.14
2022-12-18T13:27:44.358Z,63.62
2022-12-18T13:30:49.436Z,63.75
2022-12-18T13:36:51.487Z,64.83
2022-12-18T13:39:36.941Z,65.41
2022-12-18T13:43:08.451Z,65.96
2022-12-18T13:46:03.075Z,65.67
2022-12-18T13:48:54.648Z,66.30
2022-12-18T13:51:42.907Z,66.77
2022-12-18T13:54:35.355Z,66.14
2022-12-18T13:57:30.883Z,65.42
2022-12-18T14:00:29.719Z,65.67
2022-12-18T14:03:27.294Z,65.39
2022-12-18T14:06:14.136Z,64.83
2022-12-18T14:09:00.690Z,65.81
2022-12-18T14:11:50.952Z,66.55
2022-12-18T14:14:35.926Z,67.18
2022-12-18T14:17:21.218Z,68.58
2022-12-18T14:20:14.982Z,69.34
2022-12-18T14:22:59.702Z,69.37
2022-12-18T14:25:48.578Z,69.82
2022-12-18T14:28:34.016Z,69.77
2022-12-18T14:31:22.430Z,69.89
2022-12-18T14:34:06.314Z,69.46
2022-12-18T14:36:57.013Z,69.57
2022-12-18T14:39:41.233Z,68.83
2022-12-18T14:42:29.243Z,68.88
2022-12-18T14:45:41.440Z,68.02
2022-12-18T14:48:38.380Z,67.25
2022-12-18T14:51:24.432Z,65.81
2022-12-18T14:54:19.274Z,66.15
2022-12-18T14:57:05.997Z,66.38
2022-12-18T14:59:49.949Z,67.17
2022-12-18T15:02:38.153Z,67.34
2022-12-18T15:05:26.851Z,66.41
2022-12-18T15:08:42.978Z,66.41
2022-12-18T15:11:36.057Z,67.17
2022-12-18T15:14:36.726Z,66.30
2022-12-18T15:17:24.133Z,67.55
2022-12-18T15:20:13.699Z,67.36
2022-12-18T15:22:57.583Z,67.18
2022-12-18T15:25:41.569Z,66.85
2022-12-18T15:28:29.547Z,65.98
2022-12-18T15:31:26.441Z,65.53
2022-12-18T15:34:22.732Z,66.14
2022-12-18T15:37:09.620Z,66.08
2022-12-18T15:39:53.588Z,66.32
2022-12-18T15:42:54.647Z,66.20
2022-12-18T15:45:38.537Z,66.97
2022-12-18T15:48:24.263Z,67.57
2022-12-18T15:51:16.898Z,68.62
2022-12-18T15:54:05.031Z,68.38
2022-12-18T15:57:06.502Z,68.70
2022-12-18T15:59:50.435Z,68.72
2022-12-18T16:02:34.537Z,68.28
2022-12-18T16:05:20.417Z,67.77
2022-12-18T16:08:04.528Z,68.73
2022-12-18T16:10:49.934Z,69.50
2022-12-18T16:13:34.186Z,69.24
2022-12-18T16:16:18.676Z,70.82
2022-12-18T16:19:02.531Z,71.36
2022-12-18T16:21:48.569Z,71.63
2022-12-18T16:24:37.292Z,71.57
2022-12-18T16:27:23.440Z,72.69
2022-12-18T16:30:08.993Z,72.06
2022-12-18T16:32:52.921Z,72.19
2022-12-18T16:35:38.316Z,71.38
2022-12-18T16:38:22.373Z,71.07
2022-12-18T16:41:36.554Z,70.00
2022-12-18T16:44:22.217Z,69.79
2022-12-18T16:47:06.260Z,72.24
2022-12-18T16:49:53.559Z,73.78
2022-12-18T16:52:41.148Z,74.71
2022-12-18T16:55:25.077Z,74.85
2022-12-18T16:58:09.040Z,74.08
2022-12-18T17:00:54.437Z,72.79
2022-12-18T17:03:38.928Z,72.50
2022-12-18T17:06:23.108Z,72.00
2022-12-18T17:09:09.283Z,70.68
2022-12-18T17:11:53.651Z,70.65
2022-12-18T17:14:37.946Z,70.07
2022-12-18T17:17:24.104Z,69.01
2022-12-18T17:20:09.030Z,69.63
2022-12-18T17:22:53.094Z,71.07
2022-12-18T17:25:41.249Z,71.32
2022-12-18T17:28:26.066Z,70.72
2022-12-18T17:31:14.243Z,70.06
2022-12-18T17:34:00.348Z,70.97
2022-12-18T17:36:44.405Z,69.52
2022-12-18T17:39:29.039Z,69.68
2022-12-18T17:42:15.380Z,67.85
2022-12-18T17:44:59.860Z,69.09
2022-12-18T17:47:43.797Z,68.99
2022-12-18T17:50:29.128Z,67.34
2022-12-18T17:53:13.249Z,69.54
2022-12-18T17:55:57.764Z,67.88
2022-12-18T17:58:42.364Z,68.49
2022-12-18T18:01:27.384Z,69.21
2022-12-18T18:04:11.666Z,68.61
2022-12-18T18:06:57.200Z,69.54
2022-12-18T18:09:41.210Z,69.44
2022-12-18T18:12:42.849Z,69.27
2022-12-18T18:15:26.916Z,70.57
2022-12-18T18:18:11.112Z,69.95
2022-12-18T18:20:55.744Z,69.59
2022-12-18T18:23:41.961Z,69.74
2022-12-18T18:26:29.489Z,69.64
2022-12-18T18:29:15.992Z,70.35
2022-12-18T18:32:02.678Z,70.81
2022-12-18T18:34:46.618Z,70.67
2022-12-18T18:37:30.802Z,70.33
2022-12-18T18:40:16.618Z,70.08
2022-12-18T18:43:02.676Z,69.46
2022-12-18T18:45:48.714Z,69.32
2022-12-18T18:48:35.917Z,69.10
2022-12-18T18:51:21.970Z,68.43
2022-12-18T18:54:06.291Z,68.86
2022-12-18T18:59:55.857Z,70.80
2022-12-18T19:02:39.909Z,71.86
2022-12-18T19:05:23.935Z,73.12
2022-12-18T19:08:07.960Z,72.53
2022-12-18T19:10:57.657Z,72.60
2022-12-18T19:13:42.538Z,73.06
2022-12-18T19:16:28.261Z,73.04
2022-12-18T19:19:12.355Z,72.89
2022-12-18T19:21:56.675Z,73.02
2022-12-18T19:24:40.799Z,72.41
2022-12-18T19:27:24.687Z,72.76
2022-12-18T19:30:11.950Z,72.54
2022-12-18T19:32:56.206Z,71.52
2022-12-18T19:35:41.272Z,71.84
2022-12-18T19:38:25.670Z,71.96
2022-12-18T19:41:10.035Z,72.28
2022-12-18T19:43:54.301Z,71.58
2022-12-18T19:46:42.004Z,72.61
2022-12-18T19:49:26.064Z,72.99
2022-12-18T19:52:09.791Z,72.54
2022-12-18T19:54:53.746Z,72.25
2022-12-18T19:57:37.416Z,71.82
2022-12-18T20:00:23.730Z,72.48
2022-12-18T20:03:21.241Z,72.21
2022-12-18T20:06:12.102Z,71.73
2022-12-18T20:09:00.250Z,72.06
2022-12-18T20:11:45.124Z,72.72
2022-12-18T20:14:29.265Z,72.50
2022-12-18T20:17:13.391Z,72.56
2022-12-18T20:19:59.056Z,72.22
2022-12-18T20:22:42.808Z,71.85
2022-12-18T20:25:26.640Z,71.62
2022-12-18T20:28:10.479Z,71.64
2022-12-18T20:31:01.561Z,71.67
2022-12-18T20:33:48.614Z,71.00
2022-12-18T20:36:36.431Z,71.06
2022-12-18T20:39:22.575Z,71.66
2022-12-18T20:42:06.864Z,71.56
2022-12-18T20:44:51.103Z,71.54
2022-12-18T20:47:35.011Z,71.42
2022-12-18T20:50:19.116Z,71.39
2022-12-18T20:53:05.249Z,71.00
2022-12-18T20:55:49.190Z,70.63
2022-12-18T20:58:33.195Z,71.24
2022-12-18T21:01:20.587Z,71.70
2022-12-18T21:04:04.656Z,70.62
2022-12-18T21:06:54.278Z,70.61
2022-12-18T21:09:47.522Z,70.83
2022-12-18T21:12:48.204Z,70.65
2022-12-18T21:15:39.062Z,70.34
2022-12-18T21:18:23.115Z,70.63
2022-12-18T21:21:07.392Z,70.98
2022-12-18T21:23:52.019Z,71.17
2022-12-18T21:26:44.848Z,70.73
2022-12-18T21:29:29.709Z,70.56
2022-12-18T21:32:14.186Z,70.09
2022-12-18T21:34:58.053Z,70.58
2022-12-18T21:37:41.882Z,70.45
2022-12-18T21:40:26.250Z,70.50
2022-12-18T21:43:29.628Z,70.80
2022-12-18T21:46:13.420Z,70.60
2022-12-18T21:48:57.224Z,70.82
2022-12-18T21:51:41.575Z,69.58
2022-12-18T21:54:27.209Z,69.56
2022-12-18T21:57:13.436Z,69.61
2022-12-18T21:59:58.851Z,71.17
2022-12-18T22:02:43.038Z,71.71
2022-12-18T22:05:27.117Z,71.37
2022-12-18T22:08:11.222Z,71.03
2022-12-18T22:10:55.551Z,70.64
2022-12-18T22:13:39.560Z,70.50
2022-12-18T22:16:25.166Z,70.16
2022-12-18T22:19:09.675Z,70.37
2022-12-18T22:21:54.079Z,70.29
2022-12-18T22:24:38.045Z,69.74
2022-12-18T22:27:22.060Z,69.74
2022-12-18T22:30:05.990Z,70.22
2022-12-18T22:32:51.337Z,69.43
2022-12-18T22:35:35.238Z,69.57
2022-12-18T22:38:19.807Z,70.38
2022-12-18T22:41:03.790Z,70.60
2022-12-18T22:43:47.751Z,70.23
2022-12-18T22:46:34.606Z,70.17
2022-12-18T22:49:22.269Z,70.14
2022-12-18T22:52:09.447Z,70.52
2022-12-18T22:54:54.253Z,69.42
2022-12-18T22:57:38.386Z,69.92
2022-12-18T23:00:24.859Z,69.54
2022-12-18T23:03:09.806Z,70.27
2022-12-18T23:06:02.901Z,71.10
2022-12-18T23:08:50.544Z,71.63
2022-12-18T23:11:38.422Z,72.05
2022-12-18T23:14:22.526Z,72.38
2022-12-18T23:17:06.495Z,72.46
2022-12-18T23:19:50.494Z,72.67
2022-12-18T23:22:35.856Z,72.48
2022-12-18T23:25:19.664Z,73.27
2022-12-18T23:28:03.534Z,72.89
2022-12-18T23:30:47.345Z,73.16
2022-12-18T23:33:31.145Z,73.26
2022-12-18T23:36:16.015Z,72.82
2022-12-18T23:39:02.320Z,72.96
2022-12-18T23:41:46.037Z,74.13
2022-12-18T23:44:29.854Z,74.50
2022-12-18T23:47:13.679Z,73.51
2022-12-18T23:49:57.425Z,73.10
2022-12-18T23:52:41.145Z,72.97
2022-12-18T23:55:26.329Z,72.90
2022-12-18T23:58:17.913Z,73.75
